Flight Track Log - Related Links

Times and Time Zones

All times are in EDT time to prevent confusion due to time zone crossing. See the N845NN flight status page for this flight to view local times or setup timezone preferences in your user account.

Time Position Orientation Groundspeed Altitude Reporting Facility
EDT Latitude Longitude Course Direction KTS MPH feet Rate Location/Type
Sun 03:34:15 PM 33.6447 -117.8740 214° Southwest  Level FlightAware Approximate
Sun 03:35:15 PM 33.5255 -117.8588 349° North  Level FlightAware Approximate
Sun 03:35:45 PM 33.6333 -117.8833 187° South 183 211 2,000  Level Southern California TRACON
Sun 03:36:42 PM 33.5633 -117.8936 116° Southeast 228 262 4,300 2,695 Climbing Los Angeles Center
Sun 03:37:43 PM 33.5353 -117.8258 78° East 224 258 7,300 3,050 Climbing Los Angeles Center
Sun 03:38:42 PM 33.5511 -117.7339 80° East 196 226 10,400 2,370 Climbing Los Angeles Center
Sun 03:39:42 PM 33.5672 -117.6219 81° East 254 292 12,000 2,150 Climbing Los Angeles Center
Sun 03:40:42 PM 33.5831 -117.5025 86° East 317 365 14,700 2,500 Climbing Los Angeles Center
Sun 03:41:42 PM 33.5908 -117.3706 88° East 353 406 17,000 2,100 Climbing Los Angeles Center
Sun 03:42:42 PM 33.5942 -117.2358 87° East 378 435 18,900 2,100 Climbing Los Angeles Center
Sun 03:43:42 PM 33.5994 -117.0964 88° East 404 465 21,200 2,150 Climbing Los Angeles Center
Sun 03:44:42 PM 33.6028 -116.9517 87° East 414 476 23,200 1,800 Climbing Los Angeles Center
Sun 03:45:42 PM 33.6100 -116.8022 88° East 434 499 24,800 1,400 Climbing Los Angeles Center
Sun 03:46:42 PM 33.6150 -116.6450 89° East 450 518 26,000 1,350 Climbing Los Angeles Center
Sun 03:47:42 PM 33.6175 -116.4853 87° East 465 535 27,500 1,450 Climbing Los Angeles Center
Sun 03:48:42 PM 33.6242 -116.3258 86° East 476 548 28,900 1,300 Climbing Los Angeles Center
Sun 03:49:42 PM 33.6328 -116.1611 81° East 481 554 30,100 1,200 Climbing Los Angeles Center
Sun 03:50:42 PM 33.6536 -115.9964 82° East 488 562 31,300 1,200 Climbing Los Angeles Center
Sun 03:51:42 PM 33.6719 -115.8317 82° East 493 567 32,500 1,200 Climbing Los Angeles Center
Sun 03:52:42 PM 33.6903 -115.6644 83° East 499 574 33,700 1,150 Climbing Los Angeles Center
Sun 03:53:42 PM 33.7083 -115.4944 82° East 504 580 34,800 1,000 Climbing Los Angeles Center
Sun 03:54:42 PM 33.7283 -115.3269 82° East 504 580 35,700 984 Climbing Los Angeles Center
Sun 03:55:44 PM 33.7478 -115.1594 83° East 504 580 36,800 600 Climbing Los Angeles Center
Sun 03:56:42 PM 33.7653 -114.9919 83° East 504 580 36,900 102 Climbing Los Angeles Center
Sun 03:57:42 PM 33.7825 -114.8267 83° East 499 574 37,000 50 Climbing Los Angeles Center
Sun 03:58:42 PM 33.7956 -114.6964 82° East 499 574 37,000  Level Los Angeles Center
Sun 03:59:42 PM 33.8164 -114.5186 82° East 499 574 37,000  Level Los Angeles Center
Sun 04:00:42 PM 33.8350 -114.3508 83° East 499 574 37,000  Level Los Angeles Center
Sun 04:02:33 PM 33.8672 -114.0383 83° East 505 581 37,000  Level Albuquerque Center
Sun 04:03:36 PM 33.8850 -113.8669 83° East 507 583 37,000  Level Albuquerque Center
Sun 04:04:38 PM 33.9019 -113.6953 84° East 509 586 37,000  Level Albuquerque Center
Sun 04:05:41 PM 33.9178 -113.5239 83° East 510 587 37,000  Level Albuquerque Center
Sun 04:06:43 PM 33.9383 -113.3181 84° East 509 586 37,000  Level Albuquerque Center
Sun 04:07:46 PM 33.9544 -113.1453 83° East 510 587 37,000  Level Albuquerque Center
Sun 04:08:48 PM 33.9711 -112.9725 84° East 511 588 37,000  Level Albuquerque Center
Sun 04:09:51 PM 33.9864 -112.7994 83° East 511 588 37,000  Level Albuquerque Center
Sun 04:10:53 PM 34.0025 -112.6281 84° East 510 587 37,000  Level Albuquerque Center
Sun 04:11:56 PM 34.0186 -112.4536 84° East 513 590 37,000  Level Albuquerque Center
Sun 04:12:58 PM 34.0331 -112.2800 84° East 513 590 37,000  Level Albuquerque Center
Sun 04:14:01 PM 34.0483 -112.1044 84° East 515 593 37,000  Level Albuquerque Center
Sun 04:15:03 PM 34.0661 -111.8975 84° East 516 594 37,000  Level Albuquerque Center
Sun 04:16:06 PM 34.0800 -111.7247 84° East 517 595 37,000  Level Albuquerque Center
Sun 04:17:08 PM 34.0931 -111.5672 84° East 516 594 37,000  Level Albuquerque Center
Sun 04:18:11 PM 34.1075 -111.3908 84° East 517 595 37,000  Level Albuquerque Center
Sun 04:19:13 PM 34.1247 -111.1803 84° East 518 596 37,000  Level Albuquerque Center
Sun 04:20:15 PM 34.1386 -111.0050 85° East 517 595 37,000  Level Albuquerque Center
Sun 04:21:18 PM 34.1519 -110.8303 85° East 516 594 37,000  Level Albuquerque Center
Sun 04:22:20 PM 34.1644 -110.6611 85° East 518 596 37,000  Level Albuquerque Center
Sun 04:23:23 PM 34.1761 -110.4906 85° East 515 593 37,000  Level Albuquerque Center
Sun 04:24:25 PM 34.1919 -110.2839 85° East 518 596 37,000  Level Albuquerque Center
Sun 04:25:28 PM 34.2044 -110.1122 85° East 518 596 37,000  Level Albuquerque Center
Sun 04:26:30 PM 34.2164 -109.9419 85° East 518 596 37,000  Level Albuquerque Center
Sun 04:27:33 PM 34.2289 -109.7478 85° East 520 598 37,000  Level Albuquerque Center
Sun 04:28:35 PM 34.2403 -109.5800 85° East 522 601 37,000  Level Albuquerque Center
Sun 04:29:38 PM 34.2531 -109.3847 86° East 522 601 37,000  Level Albuquerque Center
Sun 04:30:40 PM 34.2639 -109.2117 85° East 521 600 37,000  Level Albuquerque Center
Sun 04:31:42 PM 34.2756 -109.0389 86° East 520 598 37,000  Level Albuquerque Center
Sun 04:32:45 PM 34.2856 -108.8658 86° East 519 597 37,000  Level Albuquerque Center
Sun 04:33:47 PM 34.2972 -108.6594 86° East 518 596 37,000  Level Albuquerque Center
Sun 04:34:49 PM 34.3083 -108.4731 86° East 519 597 37,000  Level Albuquerque Center
Sun 04:35:52 PM 34.3178 -108.2983 86° East 517 595 37,000  Level Albuquerque Center
Sun 04:36:54 PM 34.3275 -108.1256 86° East 517 595 37,000  Level Albuquerque Center
Sun 04:37:56 PM 34.3364 -107.9522 86° East 517 595 37,000  Level Albuquerque Center
Sun 04:38:59 PM 34.3453 -107.7794 86° East 518 596 37,000  Level Albuquerque Center
Sun 04:40:01 PM 34.3542 -107.6047 87° East 521 600 37,000  Level Albuquerque Center
Sun 04:41:03 PM 34.3642 -107.3947 87° East 523 602 37,000  Level Albuquerque Center
Sun 04:42:06 PM 34.3719 -107.2206 87° East 523 602 37,000  Level Albuquerque Center
Sun 04:43:08 PM 34.3794 -107.0461 87° East 523 602 37,000  Level Albuquerque Center
Sun 04:44:10 PM 34.3872 -106.8719 88° East 523 602 37,000  Level Albuquerque Center
Sun 04:45:13 PM 34.3928 -106.6983 87° East 523 602 37,000  Level Albuquerque Center
Sun 04:46:15 PM 34.4014 -106.4917 87° East 518 596 37,000  Level Albuquerque Center
Sun 04:47:17 PM 34.4086 -106.3186 88° East 518 596 37,000  Level Albuquerque Center
Sun 04:48:20 PM 34.4144 -106.1503 87° East 516 594 37,000  Level Albuquerque Center
Sun 04:49:22 PM 34.4219 -105.9453 87° East 517 595 37,000  Level Albuquerque Center
Sun 04:50:24 PM 34.4286 -105.7667 88° East 523 602 37,000  Level Albuquerque Center
Sun 04:51:27 PM 34.4336 -105.5892 88° East 523 602 37,000  Level Albuquerque Center
Sun 04:52:29 PM 34.4389 -105.4125 88° East 523 602 37,000  Level Albuquerque Center
Sun 04:53:32 PM 34.4450 -105.2356 88° East 523 602 37,000  Level Albuquerque Center
Sun 04:54:34 PM 34.4514 -105.0314 88° East 519 597 37,000  Level Albuquerque Center
Sun 04:55:36 PM 34.4569 -104.8569 88° East 517 595 37,000  Level Albuquerque Center
Sun 04:56:39 PM 34.4614 -104.6825 88° East 516 594 37,000  Level Albuquerque Center
Sun 04:57:41 PM 34.4664 -104.5069 89° East 518 596 37,000  Level Albuquerque Center
Sun 04:58:44 PM 34.4700 -104.3317 91° East 518 596 37,000  Level Albuquerque Center
Sun 04:59:46 PM 34.4672 -104.1267 93° East 519 597 37,000  Level Albuquerque Center
Sun 05:00:49 PM 34.4589 -103.9514 93° East 520 598 37,000  Level Albuquerque Center
Sun 05:01:51 PM 34.4519 -103.7761 93° East 519 597 37,000  Level Albuquerque Center
Sun 05:02:53 PM 34.4442 -103.6000 93° East 520 598 37,000  Level Albuquerque Center
Sun 05:03:56 PM 34.4361 -103.4239 94° East 521 600 37,000  Level Albuquerque Center
Sun 05:04:58 PM 34.4256 -103.2219 94° East 517 595 37,000  Level Albuquerque Center
Sun 05:06:01 PM 34.4164 -103.0478 93° East 516 594 37,000  Level Albuquerque Center
Sun 05:07:03 PM 34.4089 -102.8875 94° East 516 594 37,000  Level Albuquerque Center
Sun 05:08:06 PM 34.3983 -102.6825 94° East 513 590 37,000  Level Albuquerque Center
Sun 05:08:59 PM 34.3911 -102.5522 94° East 520 598 37,000  Level Fort Worth Center
Sun 05:09:59 PM 34.3814 -102.3806 93° East 520 598 37,000  Level Fort Worth Center
Sun 05:10:59 PM 34.3742 -102.1914 96° East 520 598 37,000  Level Fort Worth Center
Sun 05:11:59 PM 34.3611 -102.0372 94° East 515 593 37,000  Level Fort Worth Center
Sun 05:12:59 PM 34.3525 -101.8708 94° East 515 593 37,000  Level Fort Worth Center
Sun 05:13:59 PM 34.3406 -101.6792 95° East 515 593 37,000  Level Fort Worth Center
Sun 05:14:59 PM 34.3289 -101.5250 94° East 515 593 37,000  Level Fort Worth Center
Sun 05:15:59 PM 34.3197 -101.3561 95° East 520 598 37,000  Level Fort Worth Center
Sun 05:16:59 PM 34.3083 -101.1847 95° East 514 592 37,000  Level Fort Worth Center
Sun 05:17:59 PM 34.2947 -101.0133 103° East 514 592 37,000  Level Fort Worth Center
Sun 05:18:59 PM 34.2639 -100.8486 105° East 514 592 37,000  Level Fort Worth Center
Sun 05:19:59 PM 34.2286 -100.6864 105° East 501 577 37,000  Level Fort Worth Center
Sun 05:20:59 PM 34.1931 -100.5244 107° East 496 571 37,000 -50 Level Fort Worth Center
Sun 05:21:59 PM 34.1531 -100.3675 105° East 496 571 36,900 -550 Descending Fort Worth Center
Sun 05:22:59 PM 34.1169 -100.2081 105° East 496 571 35,900 -950 Descending Fort Worth Center
Sun 05:23:59 PM 34.0808 -100.0489 106° East 496 571 35,000 -950 Descending Fort Worth Center
Sun 05:24:59 PM 34.0425 -99.8850 105° East 496 571 34,000 -950 Descending Fort Worth Center
Sun 05:25:59 PM 34.0019 -99.7083 107° East 501 577 33,100 -1,350 Descending Fort Worth Center
Sun 05:26:59 PM 33.9611 -99.5444 105° East 501 577 31,300 -1,700 Descending Fort Worth Center
Sun 05:27:59 PM 33.9242 -99.3808 107° East 501 577 29,700 -1,600 Descending Fort Worth Center
Sun 05:28:59 PM 33.8828 -99.2200 108° East 501 577 28,100 -1,550 Descending Fort Worth Center
Sun 05:29:59 PM 33.8450 -99.0839 107° East 501 577 26,600 -1,350 Descending Fort Worth Center
Sun 05:30:59 PM 33.8072 -98.9333 110° East 478 550 25,400 -1,100 Descending Fort Worth Center
Sun 05:31:59 PM 33.7611 -98.7775 109° East 453 521 24,400 -700 Descending Fort Worth Center
Sun 05:32:59 PM 33.7206 -98.6397 113° Southeast 446 513 24,000 -200 Descending Fort Worth Center
Sun 05:33:59 PM 33.6719 -98.5017 112° Southeast 440 506 24,000 -950 Level Fort Worth Center
Sun 05:34:59 PM 33.6269 -98.3714 111° Southeast 434 499 22,100 -2,000 Descending Fort Worth Center
Sun 05:35:59 PM 33.5861 -98.2439 113° Southeast 423 487 20,000 -2,000 Descending Fort Worth Center
Sun 05:36:59 PM 33.5453 -98.1264 111° Southeast 415 478 18,100 -2,050 Descending Fort Worth Center
Sun 05:37:59 PM 33.5019 -97.9939 112° Southeast 404 465 15,900 -2,050 Descending Fort Worth Center
Sun 05:38:59 PM 33.4650 -97.8842 113° Southeast 393 452 14,000 -2,050 Descending Fort Worth Center
Sun 05:39:59 PM 33.4214 -97.7594 112° Southeast 388 447 11,800 -1,800 Descending Fort Worth Center
Sun 05:40:59 PM 33.3883 -97.6597 132° Southeast 362 417 10,400 -1,500 Descending Fort Worth Center
Sun 05:41:59 PM 33.3322 -97.5850 135° Southeast 312 359 8,800 -1,400 Descending Fort Worth Center
Sun 05:42:59 PM 33.2717 -97.5128 123° Southeast 284 327 7,600 -1,100 Descending Fort Worth Center
Sun 05:43:59 PM 33.2383 -97.4506 92° East 261 300 6,600 -800 Descending Fort Worth Center
Sun 05:44:59 PM 33.2361 -97.3614 114° Southeast 240 276 6,000 -750 Descending Fort Worth Center
Sun 05:45:59 PM 33.2133 -97.2992 131° Southeast 224 258 5,100 -500 Descending Fort Worth Center
Sun 05:46:59 PM 33.1694 -97.2397 131° Southeast 219 252 5,000 -150 Descending Fort Worth Center
Sun 05:47:59 PM 33.1317 -97.1878 129° Southeast 224 258 4,800 -550 Descending Fort Worth Center
Sun 05:48:59 PM 33.0897 -97.1258 132° Southeast 224 258 3,900 -900 Descending Fort Worth Center
Sun 05:49:59 PM 33.0564 -97.0814 132° Southeast 212 244 3,000 -900 Descending Fort Worth Center

Login

Don't have an account? Register now (free) for customized features, flight alerts, and more!